createdAt,value
2023-03-19T00:00:02.646Z,82.13
2023-03-19T00:01:02.651Z,82.17
2023-03-19T00:02:16.304Z,82.27
2023-03-19T00:03:02.886Z,82.51
2023-03-19T00:04:02.682Z,82.60
2023-03-19T00:05:02.688Z,82.70
2023-03-19T00:06:02.703Z,82.98
2023-03-19T00:07:02.713Z,82.70
2023-03-19T00:08:02.725Z,82.89
2023-03-19T00:09:02.721Z,82.79
2023-03-19T00:10:02.747Z,82.70
2023-03-19T00:11:02.755Z,82.42
2023-03-19T00:12:02.754Z,82.04
2023-03-19T00:13:02.786Z,82.32
2023-03-19T00:14:02.781Z,82.70
2023-03-19T00:15:02.778Z,83.27
2023-03-19T00:16:02.788Z,83.17
2023-03-19T00:17:02.792Z,83.27
2023-03-19T00:18:02.802Z,82.79
2023-03-19T00:19:02.837Z,82.60
2023-03-19T00:20:02.829Z,82.79
2023-03-19T00:21:02.827Z,81.94
2023-03-19T00:22:02.836Z,81.66
2023-03-19T00:23:02.843Z,81.94
2023-03-19T00:24:02.854Z,81.37
2023-03-19T00:25:02.863Z,81.66
2023-03-19T00:26:02.877Z,81.75
2023-03-19T00:27:02.882Z,81.66
2023-03-19T00:28:02.889Z,81.27
2023-03-19T00:29:02.899Z,81.37
2023-03-19T00:30:02.907Z,82.13
2023-03-19T00:31:02.922Z,82.89
2023-03-19T00:32:02.925Z,82.70
2023-03-19T00:33:02.985Z,82.23
2023-03-19T00:34:02.940Z,82.23
2023-03-19T00:35:02.983Z,82.23
2023-03-19T00:36:03.003Z,82.60
2023-03-19T00:37:02.975Z,82.70
2023-03-19T00:38:02.993Z,82.89
2023-03-19T00:39:02.984Z,82.79
2023-03-19T00:40:02.991Z,82.60
2023-03-19T00:41:02.998Z,82.98
2023-03-19T00:42:03.013Z,82.51
2023-03-19T00:43:03.024Z,82.23
2023-03-19T00:44:03.027Z,82.60
2023-03-19T00:45:03.040Z,82.89
2023-03-19T00:46:03.091Z,82.89
2023-03-19T00:47:03.064Z,82.60
2023-03-19T00:48:03.071Z,82.42
2023-03-19T00:49:03.067Z,82.79
2023-03-19T00:50:03.084Z,82.70
2023-03-19T00:51:03.124Z,83.08
2023-03-19T00:52:03.098Z,82.89
2023-03-19T00:53:03.112Z,83.17
2023-03-19T00:54:03.114Z,82.79
2023-03-19T00:55:03.115Z,83.08
2023-03-19T00:56:03.136Z,82.89
2023-03-19T00:57:03.135Z,82.70
2023-03-19T00:58:03.149Z,83.08
2023-03-19T00:59:03.161Z,83.36
2023-03-19T01:00:03.185Z,82.79
2023-03-19T01:01:03.251Z,82.70
2023-03-19T01:02:03.180Z,82.70
2023-03-19T01:03:03.187Z,82.23
2023-03-19T01:04:03.302Z,81.66
2023-03-19T01:05:03.212Z,81.37
2023-03-19T01:06:03.220Z,81.56
2023-03-19T01:07:03.271Z,81.37
2023-03-19T01:08:03.226Z,81.75
2023-03-19T01:09:03.244Z,81.75
2023-03-19T01:10:03.249Z,81.47
2023-03-19T01:11:03.248Z,81.66
2023-03-19T01:12:03.262Z,81.85
2023-03-19T01:13:03.445Z,82.04
2023-03-19T01:14:03.282Z,82.13
2023-03-19T01:15:03.284Z,82.13
2023-03-19T01:16:03.296Z,82.42
2023-03-19T01:17:03.307Z,82.51
2023-03-19T01:18:03.318Z,82.70
2023-03-19T01:19:03.342Z,83.08
2023-03-19T01:20:03.330Z,83.08
2023-03-19T01:21:03.333Z,82.60
2023-03-19T01:22:03.346Z,83.17
2023-03-19T01:23:03.369Z,83.74
2023-03-19T01:24:03.372Z,83.27
2023-03-19T01:25:03.366Z,83.65
2023-03-19T01:26:03.377Z,83.27
2023-03-19T01:27:03.386Z,83.08
2023-03-19T01:28:03.396Z,83.65
2023-03-19T01:29:03.406Z,83.55
2023-03-19T01:30:03.417Z,83.84
2023-03-19T01:31:03.449Z,84.03
2023-03-19T01:32:03.433Z,84.41
2023-03-19T01:33:03.491Z,84.41
2023-03-19T01:34:03.457Z,84.41
2023-03-19T01:35:03.449Z,84.78
2023-03-19T01:36:03.559Z,84.59
2023-03-19T01:37:03.470Z,85.07
2023-03-19T01:38:03.504Z,84.69
2023-03-19T01:39:03.502Z,84.98
2023-03-19T01:40:03.496Z,84.78
2023-03-19T01:41:03.501Z,85.07
2023-03-19T01:42:03.512Z,84.88
2023-03-19T01:43:03.516Z,84.88
2023-03-19T01:44:03.531Z,84.88
2023-03-19T01:45:03.535Z,85.26
2023-03-19T01:46:03.688Z,85.26
2023-03-19T01:47:03.556Z,84.31
2023-03-19T01:48:03.585Z,84.98
2023-03-19T01:49:03.571Z,84.69
2023-03-19T01:50:03.590Z,84.88
2023-03-19T01:51:03.589Z,84.50
2023-03-19T01:52:03.592Z,84.69
2023-03-19T01:53:03.598Z,84.88
2023-03-19T01:54:03.612Z,84.69
2023-03-19T01:55:03.634Z,84.78
2023-03-19T01:56:03.629Z,84.78
2023-03-19T01:57:03.638Z,84.69
2023-03-19T01:58:03.643Z,84.50
2023-03-19T01:59:03.654Z,84.88
2023-03-19T02:00:03.663Z,84.12
2023-03-19T02:01:03.668Z,84.59
2023-03-19T02:02:03.710Z,84.78
2023-03-19T02:03:03.678Z,84.31
2023-03-19T02:04:03.824Z,84.88
2023-03-19T02:05:03.700Z,84.78
2023-03-19T02:06:03.708Z,84.69
2023-03-19T02:07:03.728Z,84.88
2023-03-19T02:08:03.724Z,85.26
2023-03-19T02:09:03.726Z,84.78
2023-03-19T02:10:03.739Z,84.98
2023-03-19T02:11:03.762Z,84.98
2023-03-19T02:12:03.758Z,84.88
2023-03-19T02:13:03.855Z,84.50
2023-03-19T02:14:03.775Z,84.41
2023-03-19T02:15:03.781Z,84.50
2023-03-19T02:16:03.801Z,84.78
2023-03-19T02:17:03.793Z,85.26
2023-03-19T02:18:03.806Z,84.50
2023-03-19T02:19:03.823Z,84.88
2023-03-19T02:20:03.823Z,84.41
2023-03-19T02:21:03.830Z,84.41
2023-03-19T02:22:03.845Z,84.41
2023-03-19T02:23:03.861Z,84.59
2023-03-19T02:24:03.858Z,84.41
2023-03-19T02:25:03.860Z,84.78
2023-03-19T02:26:03.936Z,84.36
2023-03-19T02:27:03.890Z,84.41
2023-03-19T02:28:03.892Z,84.78
2023-03-19T02:29:03.896Z,84.88
2023-03-19T02:30:03.903Z,84.69
2023-03-19T02:31:03.910Z,85.26
2023-03-19T02:32:03.931Z,85.13
2023-03-19T02:33:03.945Z,85.31
2023-03-19T02:34:03.951Z,85.22
2023-03-19T02:35:03.943Z,85.50
2023-03-19T02:36:03.993Z,85.69
2023-03-19T02:37:03.959Z,85.69
2023-03-19T02:38:03.961Z,86.07
2023-03-19T02:39:03.973Z,85.88
2023-03-19T02:40:03.976Z,86.16
2023-03-19T02:41:03.994Z,85.97
2023-03-19T02:42:03.992Z,86.16
2023-03-19T02:43:04.024Z,86.16
2023-03-19T02:44:04.008Z,86.16
2023-03-19T02:45:04.021Z,85.78
2023-03-19T02:46:04.071Z,86.16
2023-03-19T02:47:04.040Z,86.35
2023-03-19T02:48:04.041Z,86.26
2023-03-19T02:49:04.049Z,86.64
2023-03-19T02:50:04.056Z,87.02
2023-03-19T02:51:04.068Z,86.26
2023-03-19T02:52:04.075Z,87.02
2023-03-19T02:53:04.099Z,86.55
2023-03-19T02:54:04.102Z,86.83
2023-03-19T02:55:04.145Z,87.02
2023-03-19T02:56:04.110Z,87.12
2023-03-19T02:57:04.126Z,87.02
2023-03-19T02:58:04.121Z,86.26
2023-03-19T02:59:04.154Z,87.06
2023-03-19T03:00:04.138Z,86.49
2023-03-19T03:01:04.220Z,86.21
2023-03-19T03:02:04.213Z,86.78
2023-03-19T03:03:04.169Z,86.93
2023-03-19T03:04:04.172Z,86.40
2023-03-19T03:05:04.188Z,86.11
2023-03-19T03:06:04.203Z,85.60
2023-03-19T03:07:04.200Z,84.98
2023-03-19T03:08:04.210Z,85.13
2023-03-19T03:09:04.220Z,84.84
2023-03-19T03:10:04.224Z,84.94
2023-03-19T03:11:04.233Z,85.22
2023-03-19T03:12:04.239Z,85.88
2023-03-19T03:13:04.254Z,85.97
2023-03-19T03:14:04.257Z,85.78
2023-03-19T03:15:04.288Z,85.69
2023-03-19T03:16:04.325Z,85.50
2023-03-19T03:17:04.284Z,86.07
2023-03-19T03:18:04.293Z,86.35
2023-03-19T03:19:04.302Z,86.55
2023-03-19T03:20:04.304Z,86.16
2023-03-19T03:21:04.318Z,85.97
2023-03-19T03:22:04.324Z,85.60
2023-03-19T03:23:04.333Z,85.69
2023-03-19T03:24:04.352Z,87.12
2023-03-19T03:25:04.360Z,86.93
2023-03-19T03:26:04.356Z,87.49
2023-03-19T03:27:04.367Z,87.68
2023-03-19T03:28:04.375Z,88.06
2023-03-19T03:29:04.382Z,88.25
2023-03-19T03:30:04.395Z,88.06
2023-03-19T03:31:04.416Z,87.40
2023-03-19T03:32:04.404Z,87.87
2023-03-19T03:33:04.436Z,88.06
2023-03-19T03:34:04.419Z,87.87
2023-03-19T03:35:04.455Z,88.06
2023-03-19T03:36:04.436Z,88.82
2023-03-19T03:37:04.446Z,88.54
2023-03-19T03:38:04.455Z,88.44
2023-03-19T03:39:04.464Z,88.16
2023-03-19T03:40:04.476Z,88.35
2023-03-19T03:41:04.480Z,88.25
2023-03-19T03:42:04.485Z,88.06
2023-03-19T03:43:04.499Z,88.73
2023-03-19T03:44:04.501Z,89.11
2023-03-19T03:45:04.511Z,89.39
2023-03-19T03:46:04.609Z,89.29
2023-03-19T03:47:04.554Z,89.11
2023-03-19T03:48:04.535Z,88.82
2023-03-19T03:49:04.542Z,89.20
2023-03-19T03:50:04.547Z,89.11
2023-03-19T03:51:04.610Z,89.01
2023-03-19T03:52:04.566Z,88.82
2023-03-19T03:53:04.584Z,88.73
2023-03-19T03:54:04.583Z,89.39
2023-03-19T03:55:04.592Z,89.39
2023-03-19T03:56:04.599Z,89.58
2023-03-19T03:57:04.626Z,89.39
2023-03-19T03:58:04.613Z,89.11
2023-03-19T03:59:04.625Z,89.77
2023-03-19T04:00:04.636Z,89.58
2023-03-19T04:01:04.642Z,89.96
2023-03-19T04:02:04.674Z,90.62
2023-03-19T04:03:04.727Z,90.62
2023-03-19T04:04:04.661Z,90.43
2023-03-19T04:05:04.673Z,90.15
2023-03-19T04:06:04.676Z,90.05
2023-03-19T04:07:04.686Z,89.96
2023-03-19T04:08:04.698Z,89.20
2023-03-19T04:09:04.701Z,89.29
2023-03-19T04:10:04.705Z,89.77
2023-03-19T04:11:04.721Z,89.48
2023-03-19T04:12:04.764Z,89.86
2023-03-19T04:13:04.734Z,89.96
2023-03-19T04:14:04.739Z,89.58
2023-03-19T04:15:04.750Z,89.58
2023-03-19T04:16:04.757Z,89.77
2023-03-19T04:17:04.767Z,90.53
2023-03-19T04:18:04.772Z,90.81
2023-03-19T04:19:04.799Z,90.62
2023-03-19T04:20:04.783Z,90.91
2023-03-19T04:21:04.794Z,90.91
2023-03-19T04:22:04.804Z,90.91
2023-03-19T04:23:04.812Z,90.62
2023-03-19T04:24:04.819Z,90.43
2023-03-19T04:25:04.881Z,90.43
2023-03-19T04:26:04.839Z,90.43
2023-03-19T04:27:04.842Z,89.77
2023-03-19T04:28:04.846Z,89.48
2023-03-19T04:29:04.865Z,89.77
2023-03-19T04:30:04.864Z,90.43
2023-03-19T04:31:05.032Z,90.72
2023-03-19T04:32:04.885Z,90.72
2023-03-19T04:33:05.024Z,91.09
2023-03-19T04:34:04.893Z,91.09
2023-03-19T04:35:04.925Z,91.28
2023-03-19T04:36:04.914Z,91.47
2023-03-19T04:37:04.925Z,91.00
2023-03-19T04:38:04.925Z,91.19
2023-03-19T04:39:04.936Z,91.28
2023-03-19T04:40:04.941Z,91.00
2023-03-19T04:41:04.965Z,91.00
2023-03-19T04:42:04.962Z,90.72
2023-03-19T04:43:04.965Z,90.62
2023-03-19T04:44:04.969Z,90.43
2023-03-19T04:45:04.997Z,90.62
2023-03-19T04:46:05.027Z,90.43
2023-03-19T04:47:05.011Z,89.96
2023-03-19T04:48:05.012Z,90.24
2023-03-19T04:49:05.014Z,90.62
2023-03-19T04:50:05.020Z,90.91
2023-03-19T04:51:05.046Z,91.47
2023-03-19T04:52:05.033Z,90.72
2023-03-19T04:53:05.042Z,90.81
2023-03-19T04:54:05.046Z,90.05
2023-03-19T04:55:05.055Z,89.77
2023-03-19T04:56:05.064Z,89.58
2023-03-19T04:57:05.077Z,89.01
2023-03-19T04:58:05.077Z,89.20
2023-03-19T04:59:05.093Z,89.11
2023-03-19T05:00:05.094Z,89.39
2023-03-19T05:01:05.143Z,89.48
2023-03-19T05:02:05.116Z,89.39
2023-03-19T05:03:05.131Z,89.29
2023-03-19T05:04:05.173Z,89.29
2023-03-19T05:05:05.137Z,89.29
2023-03-19T05:06:05.141Z,89.29
2023-03-19T05:07:05.173Z,89.29
2023-03-19T05:08:05.155Z,90.05
2023-03-19T05:09:05.182Z,89.96
2023-03-19T05:10:05.170Z,90.43
2023-03-19T05:11:05.190Z,90.34
2023-03-19T05:12:05.188Z,90.72
2023-03-19T05:13:05.196Z,90.24
2023-03-19T05:14:05.210Z,90.24
2023-03-19T05:15:05.210Z,90.53
2023-03-19T05:16:05.261Z,90.15
2023-03-19T05:17:05.226Z,90.62
2023-03-19T05:18:05.232Z,90.53
2023-03-19T05:19:05.243Z,90.62
2023-03-19T05:20:05.253Z,90.24
2023-03-19T05:21:05.261Z,90.43
2023-03-19T05:22:05.266Z,90.24
2023-03-19T05:23:05.303Z,90.43
2023-03-19T05:24:05.286Z,90.34
2023-03-19T05:25:05.294Z,90.43
2023-03-19T05:26:05.294Z,90.53
2023-03-19T05:27:05.307Z,90.91
2023-03-19T05:28:05.315Z,91.19
2023-03-19T05:29:05.322Z,90.81
2023-03-19T05:30:05.328Z,90.43
2023-03-19T05:31:05.388Z,90.53
2023-03-19T05:32:05.347Z,90.43
2023-03-19T05:33:05.427Z,90.62
2023-03-19T05:34:05.359Z,90.81
2023-03-19T05:35:05.381Z,90.72
2023-03-19T05:36:05.471Z,90.81
2023-03-19T05:37:05.379Z,91.00
2023-03-19T05:38:05.408Z,90.43
2023-03-19T05:39:05.424Z,90.53
2023-03-19T05:40:05.408Z,91.09
2023-03-19T05:41:05.409Z,91.28
2023-03-19T05:42:05.417Z,91.47
2023-03-19T05:43:05.445Z,90.91
2023-03-19T05:44:05.429Z,91.19
2023-03-19T05:45:05.450Z,91.28
2023-03-19T05:46:05.514Z,91.19
2023-03-19T05:47:05.464Z,91.28
2023-03-19T05:48:05.473Z,91.47
2023-03-19T05:49:05.475Z,91.47
2023-03-19T05:50:05.483Z,91.38
2023-03-19T05:51:05.487Z,92.47
2023-03-19T05:52:05.520Z,92.66
2023-03-19T05:53:05.540Z,93.70
2023-03-19T05:54:05.537Z,94.18
2023-03-19T05:55:05.560Z,95.22
2023-03-19T05:56:05.542Z,95.69
2023-03-19T05:57:05.545Z,95.88
2023-03-19T05:58:05.550Z,96.36
2023-03-19T05:59:05.542Z,96.36
2023-03-19T06:00:05.566Z,95.79
2023-03-19T06:01:05.562Z,95.41
2023-03-19T06:02:05.576Z,95.50
2023-03-19T06:03:05.762Z,95.69
2023-03-19T06:04:06.391Z,95.79
2023-03-19T06:05:05.591Z,95.98
2023-03-19T06:06:05.596Z,95.98
2023-03-19T06:07:05.603Z,95.60
2023-03-19T06:08:05.621Z,95.60
2023-03-19T06:09:05.620Z,95.60
2023-03-19T06:10:05.636Z,95.50
2023-03-19T06:11:05.676Z,95.69
2023-03-19T06:12:05.639Z,95.03
2023-03-19T06:13:05.647Z,95.03
2023-03-19T06:14:05.658Z,94.84
2023-03-19T06:15:05.704Z,94.46
2023-03-19T06:16:05.714Z,94.37
2023-03-19T06:17:05.680Z,94.04
2023-03-19T06:18:05.684Z,94.32
2023-03-19T06:19:05.693Z,93.27
2023-03-19T06:20:05.701Z,92.99
2023-03-19T06:21:05.713Z,93.37
2023-03-19T06:22:05.711Z,93.18
2023-03-19T06:23:05.721Z,92.90
2023-03-19T06:24:05.728Z,93.46
2023-03-19T06:25:05.740Z,93.37
2023-03-19T06:26:05.755Z,92.80
2023-03-19T06:27:05.780Z,93.56
2023-03-19T06:28:05.762Z,93.99
2023-03-19T06:29:05.771Z,95.79
2023-03-19T06:30:05.788Z,97.59
2023-03-19T06:31:05.882Z,97.30
2023-03-19T06:32:05.789Z,96.92
2023-03-19T06:33:05.842Z,97.11
2023-03-19T06:34:05.805Z,97.30
2023-03-19T06:35:05.814Z,96.92
2023-03-19T06:36:05.819Z,97.26
2023-03-19T06:37:05.841Z,97.16
2023-03-19T06:38:05.840Z,97.35
2023-03-19T06:39:05.851Z,96.41
2023-03-19T06:40:05.880Z,95.74
2023-03-19T06:41:05.871Z,95.26
2023-03-19T06:42:05.941Z,95.17
2023-03-19T06:43:05.906Z,94.60
2023-03-19T06:44:05.882Z,94.89
2023-03-19T06:45:05.893Z,94.32
2023-03-19T06:46:05.949Z,93.94
2023-03-19T06:47:05.908Z,95.55
2023-03-19T06:48:05.915Z,96.22
2023-03-19T06:49:05.924Z,95.55
2023-03-19T06:50:05.926Z,95.74
2023-03-19T06:51:05.937Z,95.07
2023-03-19T06:52:05.944Z,95.55
2023-03-19T06:53:05.956Z,96.97
2023-03-19T06:54:05.960Z,97.49
2023-03-19T06:55:05.966Z,97.49
2023-03-19T06:56:06.009Z,98.82
2023-03-19T06:57:05.993Z,99.99
2023-03-19T06:58:05.991Z,99.20
2023-03-19T06:59:06.012Z,98.91
2023-03-19T07:00:06.012Z,99.39
2023-03-19T07:01:06.147Z,98.91
2023-03-19T07:02:06.456Z,99.99
2023-03-19T07:03:06.022Z,98.82
2023-03-19T07:04:06.064Z,99.99
2023-03-19T07:05:06.039Z,99.99
2023-03-19T07:06:06.053Z,99.99
2023-03-19T07:07:06.071Z,99.99
2023-03-19T07:08:06.072Z,99.99
2023-03-19T07:09:06.068Z,99.99
2023-03-19T07:10:06.088Z,99.99
2023-03-19T07:11:06.096Z,99.99
2023-03-19T07:12:06.091Z,99.99
2023-03-19T07:13:06.098Z,99.99
2023-03-19T07:14:06.121Z,99.99
2023-03-19T07:15:06.133Z,99.99
2023-03-19T07:16:06.163Z,99.99
2023-03-19T07:17:06.599Z,99.99
2023-03-19T07:18:06.137Z,99.99
2023-03-19T07:19:06.136Z,99.99
2023-03-19T07:20:06.148Z,99.99
2023-03-19T07:21:06.156Z,99.99
2023-03-19T07:22:06.172Z,99.99
2023-03-19T07:23:06.168Z,99.99
2023-03-19T07:24:06.189Z,99.99
2023-03-19T07:25:06.203Z,99.99
2023-03-19T07:26:06.195Z,99.99
2023-03-19T07:27:06.198Z,99.99
2023-03-19T07:28:06.208Z,99.99
2023-03-19T07:29:06.213Z,99.99
2023-03-19T07:30:06.229Z,99.99
2023-03-19T07:31:06.253Z,99.99
2023-03-19T07:32:06.238Z,99.99
2023-03-19T07:33:06.284Z,99.99
2023-03-19T07:34:06.257Z,99.99
2023-03-19T07:35:06.264Z,99.99
2023-03-19T07:36:06.279Z,99.99
2023-03-19T07:37:06.283Z,99.99
2023-03-19T07:38:06.282Z,99.99
2023-03-19T07:39:06.288Z,99.99
2023-03-19T07:40:06.298Z,99.99
2023-03-19T07:41:06.337Z,99.99
2023-03-19T07:42:06.317Z,99.99
2023-03-19T07:43:06.311Z,99.82
2023-03-19T07:44:06.330Z,99.99
2023-03-19T07:45:06.331Z,99.99
2023-03-19T07:46:06.423Z,99.99
2023-03-19T07:47:08.211Z,99.99
2023-03-19T07:48:06.354Z,98.49
2023-03-19T07:49:06.356Z,99.99
2023-03-19T07:50:06.371Z,98.77
2023-03-19T07:51:06.374Z,96.97
2023-03-19T07:52:06.377Z,97.54
2023-03-19T07:53:06.443Z,99.99
2023-03-19T07:54:06.397Z,97.83
2023-03-19T07:55:06.397Z,99.25
2023-03-19T07:56:06.411Z,99.25
2023-03-19T07:57:06.410Z,97.64
2023-03-19T07:58:06.434Z,98.21
2023-03-19T07:59:06.433Z,98.49
2023-03-19T08:00:06.442Z,99.99
2023-03-19T08:01:06.439Z,98.96
2023-03-19T08:02:06.611Z,99.63
2023-03-19T08:03:06.471Z,99.99
2023-03-19T08:04:06.505Z,99.63
2023-03-19T08:05:06.467Z,99.99
2023-03-19T08:06:06.478Z,99.99
2023-03-19T08:07:06.481Z,99.99
2023-03-19T08:08:06.498Z,99.99
2023-03-19T08:09:06.496Z,99.99
2023-03-19T08:10:06.647Z,99.99
2023-03-19T08:11:06.508Z,99.99
2023-03-19T08:12:06.521Z,99.99
2023-03-19T08:13:06.529Z,99.99
2023-03-19T08:14:06.535Z,98.82
2023-03-19T08:15:06.538Z,98.44
2023-03-19T08:16:06.551Z,97.69
2023-03-19T08:17:06.604Z,98.35
2023-03-19T08:18:06.571Z,97.16
2023-03-19T08:19:06.584Z,98.11
2023-03-19T08:20:06.579Z,99.99
2023-03-19T08:21:06.583Z,98.30
2023-03-19T08:22:06.606Z,98.68
2023-03-19T08:23:06.609Z,98.30
2023-03-19T08:24:06.605Z,97.88
2023-03-19T08:25:06.611Z,96.97
2023-03-19T08:26:06.623Z,98.35
2023-03-19T08:27:06.625Z,99.99
2023-03-19T08:28:06.634Z,99.99
2023-03-19T08:29:06.636Z,98.44
2023-03-19T08:30:06.677Z,94.18
2023-03-19T08:31:06.688Z,94.08
2023-03-19T08:32:06.667Z,92.47
2023-03-19T08:33:06.740Z,90.86
2023-03-19T08:34:06.675Z,91.19
2023-03-19T08:35:06.716Z,92.66
2023-03-19T08:36:06.740Z,95.55
2023-03-19T08:37:06.696Z,96.78
2023-03-19T08:38:06.716Z,94.51
2023-03-19T08:39:06.715Z,97.45
2023-03-19T08:40:06.731Z,97.64
2023-03-19T08:41:06.735Z,98.63
2023-03-19T08:42:06.744Z,97.97
2023-03-19T08:43:06.782Z,98.44
2023-03-19T08:44:06.752Z,95.03
2023-03-19T08:45:06.753Z,95.07
2023-03-19T08:46:06.796Z,95.74
2023-03-19T08:47:06.770Z,97.16
2023-03-19T08:48:06.784Z,99.99
2023-03-19T08:49:06.789Z,99.20
2023-03-19T08:50:06.793Z,99.49
2023-03-19T08:51:06.814Z,97.12
2023-03-19T08:52:06.808Z,98.25
2023-03-19T08:53:06.835Z,98.40
2023-03-19T08:54:06.825Z,96.69
2023-03-19T08:55:06.824Z,97.17
2023-03-19T08:56:06.843Z,96.03
2023-03-19T08:57:06.840Z,96.12
2023-03-19T08:58:06.852Z,96.17
2023-03-19T08:59:06.854Z,96.17
2023-03-19T09:00:06.866Z,96.64
2023-03-19T09:01:06.869Z,96.31
2023-03-19T09:02:06.951Z,93.37
2023-03-19T09:03:06.890Z,92.85
2023-03-19T09:04:06.899Z,92.66
2023-03-19T09:05:06.907Z,94.84
2023-03-19T09:06:06.915Z,93.70
2023-03-19T09:07:06.933Z,96.22
2023-03-19T09:08:06.922Z,92.80
2023-03-19T09:09:06.929Z,92.80
2023-03-19T09:10:06.939Z,91.66
2023-03-19T09:11:06.985Z,92.80
2023-03-19T09:12:06.960Z,91.09
2023-03-19T09:13:06.957Z,91.19
2023-03-19T09:14:06.971Z,91.80
2023-03-19T09:15:06.988Z,92.85
2023-03-19T09:16:07.112Z,92.61
2023-03-19T09:17:06.986Z,92.99
2023-03-19T09:18:07.001Z,91.89
2023-03-19T09:19:07.001Z,91.61
2023-03-19T09:20:07.012Z,88.86
2023-03-19T09:21:07.020Z,89.33
2023-03-19T09:22:07.043Z,86.72
2023-03-19T09:23:07.161Z,89.48
2023-03-19T09:24:07.043Z,90.81
2023-03-19T09:25:07.048Z,92.33
2023-03-19T09:26:07.057Z,89.10
2023-03-19T09:27:07.066Z,89.10
2023-03-19T09:28:07.086Z,91.56
2023-03-19T09:29:07.076Z,92.61
2023-03-19T09:30:07.089Z,91.28
2023-03-19T09:31:07.204Z,89.81
2023-03-19T09:32:07.103Z,88.76
2023-03-19T09:33:07.160Z,87.49
2023-03-19T09:34:07.120Z,90.24
2023-03-19T09:35:07.120Z,88.81
2023-03-19T09:36:07.165Z,89.20
2023-03-19T09:37:07.138Z,90.81
2023-03-19T09:38:07.163Z,91.80
2023-03-19T09:39:07.170Z,88.48
2023-03-19T09:40:07.161Z,85.53
2023-03-19T09:41:07.189Z,86.77
2023-03-19T09:42:07.178Z,86.96
2023-03-19T09:43:07.182Z,91.61
2023-03-19T09:44:07.193Z,87.11
2023-03-19T09:45:07.202Z,87.49
2023-03-19T09:46:07.233Z,91.24
2023-03-19T09:47:07.290Z,91.14
2023-03-19T09:48:07.224Z,90.00
2023-03-19T09:49:07.238Z,90.00
2023-03-19T09:50:07.249Z,90.09
2023-03-19T09:51:07.246Z,90.57
2023-03-19T09:52:09.487Z,88.76
2023-03-19T09:53:07.263Z,88.86
2023-03-19T09:54:07.299Z,89.72
2023-03-19T09:55:07.291Z,88.67
2023-03-19T09:56:07.284Z,89.86
2023-03-19T09:57:07.292Z,90.14
2023-03-19T09:58:07.303Z,88.34
2023-03-19T09:59:07.307Z,85.58
2023-03-19T10:00:07.317Z,86.38
2023-03-19T10:01:07.321Z,84.82
2023-03-19T10:02:07.389Z,85.20
2023-03-19T10:03:07.338Z,85.96
2023-03-19T10:04:07.372Z,88.15
2023-03-19T10:05:07.364Z,85.96
2023-03-19T10:06:07.369Z,85.62
2023-03-19T10:07:07.368Z,83.91
2023-03-19T10:08:08.437Z,82.49
2023-03-19T10:09:07.384Z,83.53
2023-03-19T10:10:07.397Z,81.92
2023-03-19T10:11:07.426Z,79.69
2023-03-19T10:12:07.421Z,80.96
2023-03-19T10:13:07.417Z,80.96
2023-03-19T10:14:07.430Z,81.63
2023-03-19T10:15:07.435Z,81.68
2023-03-19T10:16:07.602Z,84.48
2023-03-19T10:17:07.456Z,81.78
2023-03-19T10:18:07.464Z,82.35
2023-03-19T10:19:07.469Z,83.30
2023-03-19T10:20:07.483Z,85.11
2023-03-19T10:21:07.503Z,85.86
2023-03-19T10:22:07.498Z,84.72
2023-03-19T10:23:07.502Z,84.77
2023-03-19T10:24:07.512Z,83.20
2023-03-19T10:25:07.520Z,81.68
2023-03-19T10:26:07.532Z,81.49
2023-03-19T10:27:07.556Z,81.02
2023-03-19T10:28:07.548Z,82.45
2023-03-19T10:29:07.553Z,83.39
2023-03-19T10:30:07.570Z,85.01
2023-03-19T10:31:07.576Z,83.73
2023-03-19T10:32:07.613Z,83.16
2023-03-19T10:33:07.689Z,84.30
2023-03-19T10:34:07.605Z,82.97
2023-03-19T10:35:07.606Z,82.03
2023-03-19T10:36:07.678Z,82.69
2023-03-19T10:37:07.627Z,83.64
2023-03-19T10:38:07.641Z,85.44
2023-03-19T10:39:07.669Z,85.06
2023-03-19T10:40:07.659Z,86.96
2023-03-19T10:41:07.669Z,87.91
2023-03-19T10:42:07.673Z,86.20
2023-03-19T10:43:07.717Z,86.87
2023-03-19T10:44:07.687Z,88.01
2023-03-19T10:45:07.694Z,87.72
2023-03-19T10:46:07.776Z,87.57
2023-03-19T10:47:07.720Z,86.05
2023-03-19T10:48:07.722Z,84.63
2023-03-19T10:49:07.725Z,84.44
2023-03-19T10:50:07.741Z,85.43
2023-03-19T10:51:07.748Z,82.39
2023-03-19T10:52:07.767Z,85.19
2023-03-19T10:53:07.761Z,83.10
2023-03-19T10:54:07.773Z,80.34
2023-03-19T10:55:07.783Z,81.38
2023-03-19T10:56:07.799Z,81.35
2023-03-19T10:57:07.795Z,83.76
2023-03-19T10:58:07.812Z,81.58
2023-03-19T10:59:07.833Z,81.16
2023-03-19T11:00:07.827Z,84.77
2023-03-19T11:01:07.933Z,83.10
2023-03-19T11:02:07.841Z,81.29
2023-03-19T11:03:07.846Z,80.82
2023-03-19T11:04:07.923Z,79.86
2023-03-19T11:05:07.869Z,80.24
2023-03-19T11:06:07.891Z,78.25
2023-03-19T11:07:07.881Z,78.82
2023-03-19T11:08:07.893Z,79.77
2023-03-19T11:09:07.918Z,79.54
2023-03-19T11:10:07.910Z,81.16
2023-03-19T11:11:07.924Z,81.82
2023-03-19T11:12:07.928Z,81.30
2023-03-19T11:13:07.948Z,82.29
2023-03-19T11:14:07.946Z,82.10
2023-03-19T11:15:07.983Z,80.77
2023-03-19T11:16:08.046Z,81.25
2023-03-19T11:17:07.985Z,79.06
2023-03-19T11:18:07.982Z,80.82
2023-03-19T11:19:08.024Z,79.20
2023-03-19T11:20:07.998Z,78.82
2023-03-19T11:21:08.039Z,79.77
2023-03-19T11:22:08.027Z,78.72
2023-03-19T11:23:08.031Z,78.34
2023-03-19T11:24:08.030Z,78.34
2023-03-19T11:25:08.071Z,78.06
2023-03-19T11:26:08.048Z,78.30
2023-03-19T11:27:08.073Z,80.21
2023-03-19T11:28:08.070Z,79.50
2023-03-19T11:29:08.085Z,81.06
2023-03-19T11:30:08.094Z,80.16
2023-03-19T11:31:08.114Z,80.87
2023-03-19T11:32:20.825Z,83.34
2023-03-19T11:33:08.216Z,80.49
2023-03-19T11:34:08.138Z,78.97
2023-03-19T11:35:08.134Z,79.11
2023-03-19T11:36:08.259Z,77.83
2023-03-19T11:37:08.160Z,78.50
2023-03-19T11:38:08.156Z,81.67
2023-03-19T11:39:08.173Z,79.35
2023-03-19T11:40:08.178Z,80.34
2023-03-19T11:41:08.196Z,78.97
2023-03-19T11:42:08.194Z,78.55
2023-03-19T11:43:08.222Z,80.69
2023-03-19T11:44:08.214Z,80.64
2023-03-19T11:45:08.237Z,83.01
2023-03-19T11:46:08.298Z,81.30
2023-03-19T11:47:14.968Z,81.68
2023-03-19T11:48:08.254Z,81.02
2023-03-19T11:49:08.273Z,82.82
2023-03-19T11:50:08.311Z,84.34
2023-03-19T11:51:08.295Z,83.36
2023-03-19T11:52:08.289Z,83.78
2023-03-19T11:53:08.299Z,83.11
2023-03-19T11:54:08.306Z,82.21
2023-03-19T11:55:08.321Z,81.93
2023-03-19T11:56:08.320Z,81.87
2023-03-19T11:57:08.349Z,83.11
2023-03-19T11:58:08.339Z,82.54
2023-03-19T11:59:08.351Z,82.45
2023-03-19T12:00:08.356Z,81.78
2023-03-19T12:01:08.367Z,82.45
2023-03-19T12:02:08.387Z,84.06
2023-03-19T12:03:08.432Z,84.53
2023-03-19T12:04:08.392Z,82.92
2023-03-19T12:05:08.412Z,83.59
2023-03-19T12:06:08.407Z,82.45
2023-03-19T12:07:08.422Z,82.26
2023-03-19T12:08:08.432Z,82.82
2023-03-19T12:09:08.442Z,82.59
2023-03-19T12:10:08.445Z,83.92
2023-03-19T12:11:08.457Z,84.59
2023-03-19T12:12:08.470Z,84.59
2023-03-19T12:13:08.471Z,83.73
2023-03-19T12:14:08.477Z,83.36
2023-03-19T12:15:08.491Z,83.36
2023-03-19T12:16:08.554Z,84.11
2023-03-19T12:17:08.507Z,84.59
2023-03-19T12:18:08.512Z,84.40
2023-03-19T12:19:08.547Z,84.21
2023-03-19T12:20:08.537Z,84.87
2023-03-19T12:21:08.552Z,84.30
2023-03-19T12:22:08.555Z,85.82
2023-03-19T12:23:08.572Z,84.97
2023-03-19T12:24:08.561Z,83.92
2023-03-19T12:25:08.576Z,83.83
2023-03-19T12:26:08.583Z,84.40
2023-03-19T12:27:08.593Z,86.20
2023-03-19T12:28:08.596Z,85.53
2023-03-19T12:29:08.606Z,84.78
2023-03-19T12:30:08.611Z,86.01
2023-03-19T12:31:08.728Z,86.58
2023-03-19T12:32:08.625Z,87.24
2023-03-19T12:33:08.780Z,86.87
2023-03-19T12:34:08.639Z,86.39
2023-03-19T12:35:08.678Z,85.53
2023-03-19T12:36:08.688Z,85.06
2023-03-19T12:37:08.673Z,84.68
2023-03-19T12:38:08.673Z,84.49
2023-03-19T12:39:08.688Z,85.25
2023-03-19T12:40:08.692Z,85.02
2023-03-19T12:41:08.700Z,85.97
2023-03-19T12:42:08.706Z,87.58
2023-03-19T12:43:08.715Z,89.95
2023-03-19T12:44:08.722Z,90.14
2023-03-19T12:45:08.735Z,89.39
2023-03-19T12:46:08.825Z,90.43
2023-03-19T12:47:08.751Z,91.94
2023-03-19T12:48:08.762Z,92.52
2023-03-19T12:49:08.769Z,92.33
2023-03-19T12:50:08.805Z,94.51
2023-03-19T12:51:08.802Z,94.98
2023-03-19T12:52:08.790Z,95.07